Time;durP1;ratioP1;P1;durP2;ratioP2;P2;SDS_P1;SDS_P2;PMS_P1;PMS_P2;Temp;Humidity;BMP_temperature;BMP_pressure;BME280_temperature;BME280_humidity;BME280_pressure;Samples;Min_cycle;Max_cycle;Signal;HPM_P1;HPM_P2
2022/06/25 00:01:21;;;;;;;5.17;4.67;;;;;;;20.94;68.36;99683.22;5097318;27;20906;-63
2022/06/25 00:03:48;;;;;;;5.27;4.87;;;;;;;20.90;68.48;99683.88;5086716;28;20440;-63
2022/06/25 00:06:15;;;;;;;5.20;4.70;;;;;;;20.91;68.10;99685.56;5087954;28;20522;-62
2022/06/25 00:08:44;;;;;;;6.03;5.00;;;;;;;20.93;67.93;99687.00;5098374;28;20443;-62
2022/06/25 00:12:31;;;;;;;4.73;4.30;;;;;;;20.89;68.27;99688.50;5098034;28;20499;-63
2022/06/25 00:13:58;;;;;;;7.47;5.50;;;;;;;20.90;68.12;99692.91;5097782;28;20449;-62
2022/06/25 00:16:26;;;;;;;5.70;5.20;;;;;;;20.75;68.41;99685.06;5093447;28;20569;-63
2022/06/25 00:18:53;;;;;;;5.70;5.20;;;;;;;20.86;68.11;99688.94;5078824;28;20275;-63
2022/06/25 00:21:19;;;;;;;8.67;5.00;;;;;;;20.86;68.01;99691.66;5089177;28;20509;-62
2022/06/25 00:23:46;;;;;;;8.93;6.27;;;;;;;20.69;68.83;99686.78;5098673;28;20964;-62
2022/06/25 00:26:13;;;;;;;6.40;5.83;;;;;;;20.61;69.21;99687.00;5091591;28;20859;-62
2022/06/25 00:28:39;;;;;;;7.00;5.77;;;;;;;20.53;69.60;99706.28;5078957;28;20528;-63
2022/06/25 00:31:06;;;;;;;7.47;5.90;;;;;;;20.52;69.35;99704.63;5086388;28;20477;-62
2022/06/25 00:33:34;;;;;;;6.07;5.57;;;;;;;20.64;69.39;99710.22;5098860;28;20487;-62
2022/06/25 00:36:01;;;;;;;6.80;6.20;;;;;;;20.43;69.64;99709.50;5098183;27;20836;-62
2022/06/25 00:38:28;;;;;;;5.90;5.40;;;;;;;20.45;69.76;99717.41;5096923;28;20496;-63
2022/06/25 00:40:55;;;;;;;6.27;5.20;;;;;;;20.47;69.42;99718.88;5088102;28;20486;-63
2022/06/25 00:43:21;;;;;;;5.90;5.40;;;;;;;20.37;69.33;99723.13;5102005;28;20474;-63
2022/06/25 00:45:48;;;;;;;6.10;5.50;;;;;;;20.39;69.31;99731.88;5100945;28;20503;-63
2022/06/25 00:48:15;;;;;;;7.07;5.53;;;;;;;20.29;70.02;99735.03;5102172;28;20843;-63
2022/06/25 00:50:43;;;;;;;6.13;4.90;;;;;;;20.30;70.05;99737.53;5086413;28;20516;-62
2022/06/25 00:53:10;;;;;;;6.40;5.80;;;;;;;20.27;70.08;99735.25;5102122;28;20497;-63
2022/06/25 00:55:39;;;;;;;7.47;6.87;;;;;;;20.24;70.53;99734.84;5100957;28;20475;-63
2022/06/25 00:58:10;;;;;;;6.70;5.93;;;;;;;20.19;70.96;99743.66;5085835;28;20538;-63
2022/06/25 01:00:37;;;;;;;7.00;6.40;;;;;;;20.32;70.35;99748.19;5089061;27;20463;-62
2022/06/25 01:03:04;;;;;;;6.70;6.10;;;;;;;20.29;70.59;99763.03;5090385;28;20859;-63
2022/06/25 01:05:31;;;;;;;6.90;6.20;;;;;;;20.24;70.83;99768.28;5087856;27;20486;-61
2022/06/25 01:07:59;;;;;;;6.97;6.40;;;;;;;20.05;71.51;99772.75;5094443;28;20490;-62
2022/06/25 01:10:26;;;;;;;8.90;6.67;;;;;;;20.07;71.45;99772.53;5083915;28;23253;-62
2022/06/25 01:12:53;;;;;;;6.70;6.00;;;;;;;20.06;71.60;99776.28;5102135;28;20989;-62
2022/06/25 01:15:20;;;;;;;7.43;6.73;;;;;;;20.03;72.29;99771.28;5101171;28;21038;-62
2022/06/25 01:17:48;;;;;;;7.30;6.60;;;;;;;19.82;73.10;99770.50;5101570;28;21042;-63
2022/06/25 01:20:16;;;;;;;6.50;5.90;;;;;;;19.88;72.70;99776.97;5101514;27;20465;-62
2022/06/25 01:22:44;;;;;;;10.97;7.50;;;;;;;19.81;73.37;99779.69;5084483;28;20443;-63
2022/06/25 01:25:12;;;;;;;7.70;7.00;;;;;;;19.67;73.86;99778.88;5082639;28;20447;-63
2022/06/25 01:27:39;;;;;;;7.97;7.27;;;;;;;19.65;74.29;99778.25;5101384;28;20439;-64
2022/06/25 01:30:09;;;;;;;7.93;7.13;;;;;;;19.70;74.29;99783.03;5101309;28;20914;-64
2022/06/25 01:32:36;;;;;;;8.50;7.70;;;;;;;19.66;74.47;99768.22;5101411;28;20462;-64
2022/06/25 01:35:03;;;;;;;8.10;7.40;;;;;;;19.68;74.23;99766.13;5101286;28;20508;-64
2022/06/25 01:37:29;;;;;;;7.23;6.53;;;;;;;19.77;73.97;99772.19;5100727;28;20482;-64
2022/06/25 01:39:58;;;;;;;7.20;6.60;;;;;;;19.73;73.85;99772.56;5101491;28;20463;-63
2022/06/25 01:45:11;;;;;;;6.40;5.90;;;;;;;19.99;72.55;99776.31;5100724;27;21014;-63
2022/06/25 01:47:37;;;;;;;6.67;6.17;;;;;;;20.02;72.34;99780.47;5083948;28;20969;-63
2022/06/25 01:50:06;;;;;;;6.37;5.10;;;;;;;20.02;72.02;99786.72;5081292;28;20507;-60
2022/06/25 01:52:33;;;;;;;6.07;5.47;;;;;;;20.01;71.87;99785.06;5101098;28;20466;-61
2022/06/25 01:55:01;;;;;;;6.30;5.70;;;;;;;19.95;72.27;99780.50;5100661;28;20450;-61
2022/06/25 01:57:28;;;;;;;6.00;4.87;;;;;;;20.15;71.40;99785.00;5100909;28;20503;-61
2022/06/25 01:59:54;;;;;;;6.67;5.40;;;;;;;20.03;71.78;99787.56;5101461;28;20478;-61
2022/06/25 02:02:21;;;;;;;5.60;4.53;;;;;;;20.01;71.77;99789.66;5101074;28;20506;-61
2022/06/25 02:04:47;;;;;;;7.43;4.83;;;;;;;19.96;72.29;99786.75;5087456;28;20466;-62
2022/06/25 02:07:14;;;;;;;5.63;5.00;;;;;;;19.94;72.42;99782.34;5082196;28;20505;-62
2022/06/25 02:09:41;;;;;;;6.00;5.40;;;;;;;19.86;72.67;99781.75;5079984;28;20451;-62
2022/06/25 02:12:09;;;;;;;5.30;4.90;;;;;;;19.83;72.91;99790.34;5097809;28;20511;-62
2022/06/25 02:14:36;;;;;;;6.10;4.60;;;;;;;19.87;72.89;99786.16;5100941;28;20459;-62
2022/06/25 02:17:03;;;;;;;5.60;5.10;;;;;;;19.79;72.93;99784.50;5100171;28;20495;-62
2022/06/25 02:19:30;;;;;;;5.33;4.83;;;;;;;19.80;72.83;99786.16;5100674;28;20546;-62
2022/06/25 02:21:56;;;;;;;8.87;4.73;;;;;;;19.87;72.29;99780.72;5094038;28;20557;-62
2022/06/25 02:24:23;;;;;;;5.20;4.23;;;;;;;19.81;72.34;99782.41;5099684;28;20517;-63
2022/06/25 02:26:50;;;;;;;5.37;4.87;;;;;;;19.73;72.89;99782.59;5098834;27;20480;-62
2022/06/25 02:29:18;;;;;;;6.80;4.00;;;;;;;19.79;72.34;99781.81;5092243;28;20610;-63
2022/06/25 02:31:44;;;;;;;5.10;4.70;;;;;;;19.77;72.55;99778.44;5093120;28;20559;-62
2022/06/25 02:34:11;;;;;;;5.67;4.50;;;;;;;19.68;72.94;99783.22;5100271;28;20546;-62
2022/06/25 02:36:37;;;;;;;5.10;4.57;;;;;;;19.68;72.88;99790.53;5091435;28;21101;-64
2022/06/25 02:39:04;;;;;;;5.67;5.17;;;;;;;19.61;73.37;99785.13;5079818;28;20491;-63
2022/06/25 02:41:31;;;;;;;5.37;4.97;;;;;;;19.57;73.39;99795.56;5095217;27;20470;-64
2022/06/25 02:43:57;;;;;;;4.60;4.27;;;;;;;19.60;73.53;99798.88;5080433;28;20443;-63
2022/06/25 02:46:26;;;;;;;6.70;4.50;;;;;;;19.52;73.62;99794.53;5093855;27;20479;-63
2022/06/25 02:48:52;;;;;;;5.57;5.07;;;;;;;19.48;73.85;99798.72;5082881;28;20478;-62
2022/06/25 02:51:19;;;;;;;5.10;4.70;;;;;;;19.44;74.14;99802.88;5095648;27;21171;-62
2022/06/25 02:53:46;;;;;;;5.00;4.60;;;;;;;19.52;73.98;99799.97;5087542;28;21035;-63
2022/06/25 02:58:56;;;;;;;5.43;4.80;;;;;;;19.39;74.61;99800.81;5084494;28;20501;-63
2022/06/25 03:01:23;;;;;;;6.13;4.83;;;;;;;19.40;74.61;99816.00;5099081;27;20490;-63
2022/06/25 03:03:52;;;;;;;5.97;4.93;;;;;;;19.39;74.86;99814.38;5097774;28;20475;-63
2022/06/25 03:06:19;;;;;;;5.90;5.40;;;;;;;19.32;74.83;99822.50;5080562;28;20510;-64
2022/06/25 03:08:45;;;;;;;5.83;5.27;;;;;;;19.39;74.89;99819.78;5078875;28;21261;-62
2022/06/25 03:11:12;;;;;;;5.30;4.33;;;;;;;19.30;74.96;99816.41;5088178;28;20478;-63
2022/06/25 03:13:39;;;;;;;7.23;5.10;;;;;;;19.22;75.07;99821.22;5100014;28;20439;-62
2022/06/25 03:16:06;;;;;;;5.60;4.93;;;;;;;19.08;75.95;99828.50;5098627;27;20496;-62
2022/06/25 03:18:33;;;;;;;6.93;4.87;;;;;;;19.15;75.83;99830.19;5099546;28;20447;-62
2022/06/25 03:21:01;;;;;;;5.33;4.83;;;;;;;19.00;76.34;99833.06;5091802;28;20582;-62
2022/06/25 03:23:27;;;;;;;4.87;4.47;;;;;;;19.09;75.97;99841.84;5079361;28;20494;-63
2022/06/25 03:25:54;;;;;;;5.17;4.50;;;;;;;19.11;75.82;99839.78;5086022;28;20502;-63
2022/06/25 03:28:21;;;;;;;6.30;5.70;;;;;;;19.18;75.13;99842.47;5099612;28;20447;-63
2022/06/25 03:30:47;;;;;;;4.70;4.30;;;;;;;19.08;75.43;99842.91;5092016;28;20492;-63
2022/06/25 03:33:14;;;;;;;5.60;4.80;;;;;;;19.23;75.43;99842.69;5078855;28;20450;-63
2022/06/25 03:35:41;;;;;;;4.93;4.43;;;;;;;19.34;75.07;99852.94;5083145;28;20517;-61
2022/06/25 03:38:09;;;;;;;5.70;5.20;;;;;;;19.15;75.97;99859.19;5099097;28;20469;-62
2022/06/25 03:40:36;;;;;;;5.67;5.17;;;;;;;19.28;75.23;99863.75;5098205;28;21327;-61
2022/06/25 03:43:03;;;;;;;5.17;4.67;;;;;;;19.28;75.21;99863.75;5099420;28;20743;-62
2022/06/25 03:45:29;;;;;;;5.90;4.93;;;;;;;19.32;74.97;99867.72;5098044;28;20497;-63
2022/06/25 03:47:56;;;;;;;8.63;4.80;;;;;;;19.69;74.33;99868.16;5099218;28;20470;-62
2022/06/25 03:50:23;;;;;;;5.73;4.43;;;;;;;19.74;73.75;99871.09;5098675;28;20522;-62
2022/06/25 03:52:50;;;;;;;7.27;3.83;;;;;;;21.30;68.58;99868.41;5097644;28;20435;-62
2022/06/25 03:55:18;;;;;;;4.10;3.43;;;;;;;24.12;58.87;99879.13;5084812;28;20455;-62
2022/06/25 03:57:46;;;;;;;3.67;3.33;;;;;;;23.81;57.14;99880.31;5098496;28;20439;-63
2022/06/25 04:00:14;;;;;;;4.43;3.60;;;;;;;24.78;54.46;99889.81;5098601;28;20442;-63
2022/06/25 04:02:41;;;;;;;4.20;3.33;;;;;;;26.15;50.32;99888.91;5098516;28;20500;-63
2022/06/25 04:05:08;;;;;;;3.80;3.50;;;;;;;26.81;47.64;99897.16;5084816;27;20462;-61
2022/06/25 04:07:35;;;;;;;4.70;3.10;;;;;;;26.41;48.56;99895.53;5099348;28;20470;-61
2022/06/25 04:10:01;;;;;;;3.83;3.00;;;;;;;27.12;47.11;99894.75;5098099;28;20501;-62
2022/06/25 04:12:29;;;;;;;4.50;3.90;;;;;;;25.39;51.50;99892.06;5099987;28;20518;-63
2022/06/25 04:14:56;;;;;;;3.73;3.40;;;;;;;27.15;46.87;99895.06;5102317;28;20472;-63
2022/06/25 04:17:23;;;;;;;3.97;3.67;;;;;;;27.76;45.12;99886.56;5091982;27;20502;-63
2022/06/25 04:19:49;;;;;;;3.60;3.30;;;;;;;27.05;46.45;99893.03;5098936;28;20501;-63
2022/06/25 04:22:16;;;;;;;5.93;3.53;;;;;;;27.79;45.61;99893.41;5098383;28;20472;-63
2022/06/25 04:24:43;;;;;;;5.63;3.70;;;;;;;28.30;43.81;99898.47;5070690;28;20527;-63
2022/06/25 04:29:03;;;;;;;4.30;2.90;;;;;;;28.54;43.48;99893.34;5082647;28;20477;-64
2022/06/25 04:29:57;;;;;;;3.10;2.70;;;;;;;28.37;43.23;99901.78;5101801;28;20458;-64
2022/06/25 04:32:23;;;;;;;3.37;2.80;;;;;;;27.43;45.97;99904.97;5102530;28;20506;-63
2022/06/25 04:34:50;;;;;;;3.47;3.17;;;;;;;28.00;43.88;99908.16;5102043;28;20478;-63
2022/06/25 04:37:17;;;;;;;3.23;2.83;;;;;;;28.62;42.72;99912.09;5102878;28;20467;-63
2022/06/25 04:39:43;;;;;;;3.00;2.80;;;;;;;27.51;44.88;99911.88;5102455;28;20455;-63
2022/06/25 04:42:10;;;;;;;4.03;2.83;;;;;;;27.70;44.69;99920.56;5102594;28;20470;-63
2022/06/25 04:44:36;;;;;;;3.10;2.70;;;;;;;28.72;41.74;99919.56;5102975;28;20486;-61
2022/06/25 04:47:05;;;;;;;4.57;2.90;;;;;;;27.26;45.13;99923.44;5101452;28;20501;-61
2022/06/25 04:49:32;;;;;;;2.53;2.10;;;;;;;27.49;45.17;99913.25;5102463;28;20466;-62
2022/06/25 04:51:58;;;;;;;5.23;2.80;;;;;;;27.36;45.24;99914.47;5102214;28;20514;-62
2022/06/25 04:54:25;;;;;;;4.53;2.90;;;;;;;27.12;45.46;99924.94;5101949;28;20454;-63
2022/06/25 04:56:51;;;;;;;3.57;2.13;;;;;;;27.16;45.68;99913.16;5101415;28;20490;-63
2022/06/25 04:59:18;;;;;;;3.43;2.50;;;;;;;26.97;45.71;99918.19;5101949;28;20706;-62
2022/06/25 05:01:45;;;;;;;2.60;2.40;;;;;;;26.62;46.42;99921.34;5102177;28;20526;-63
2022/06/25 05:04:13;;;;;;;3.57;2.37;;;;;;;26.81;45.91;99924.59;5102403;28;20460;-63
2022/06/25 05:06:40;;;;;;;3.20;2.40;;;;;;;27.08;45.40;99926.53;5099392;27;20500;-63
2022/06/25 05:09:06;;;;;;;2.93;2.60;;;;;;;26.59;46.43;99927.28;5099121;28;20471;-62
2022/06/25 05:11:33;;;;;;;5.00;2.60;;;;;;;26.85;46.44;99925.72;5080892;28;20510;-62
2022/06/25 05:14:00;;;;;;;3.67;2.43;;;;;;;26.35;46.83;99933.00;5090270;28;20504;-62
2022/06/25 05:16:26;;;;;;;4.20;2.60;;;;;;;26.41;46.83;99940.22;5100517;28;21163;-62
2022/06/25 05:18:53;;;;;;;3.50;2.67;;;;;;;27.06;46.05;99945.97;5101211;28;20519;-63
2022/06/25 05:21:21;;;;;;;3.40;2.37;;;;;;;27.63;43.64;99946.59;5099919;28;21003;-63
2022/06/25 05:23:47;;;;;;;3.00;2.70;;;;;;;27.54;43.62;99929.75;5100307;28;20790;-63
2022/06/25 05:26:14;;;;;;;4.83;2.30;;;;;;;28.01;42.64;99948.28;5100952;28;20498;-63
2022/06/25 05:28:41;;;;;;;3.67;2.37;;;;;;;27.95;43.09;99946.59;5101119;28;20492;-63
2022/06/25 05:31:08;;;;;;;4.03;2.33;;;;;;;27.94;43.15;99948.50;5100682;28;20482;-63
2022/06/25 05:33:34;;;;;;;4.43;2.37;;;;;;;27.24;45.03;99950.31;5101278;28;20596;-63
2022/06/25 05:36:01;;;;;;;3.17;2.40;;;;;;;27.70;43.71;99944.44;5100457;28;20466;-62
2022/06/25 05:38:29;;;;;;;5.43;2.47;;;;;;;28.02;42.98;99954.63;5100939;28;20489;-62
2022/06/25 05:40:57;;;;;;;5.03;2.73;;;;;;;27.54;43.54;99955.28;5095075;28;21042;-63
2022/06/25 05:43:23;;;;;;;4.73;2.57;;;;;;;28.36;41.83;99955.94;5101554;28;21022;-64
2022/06/25 05:45:50;;;;;;;3.23;2.20;;;;;;;27.58;43.69;99952.84;5098963;28;20822;-64
2022/06/25 05:48:17;;;;;;;2.40;2.20;;;;;;;27.74;43.44;99953.81;5100862;28;20443;-64
2022/06/25 05:50:43;;;;;;;2.77;2.40;;;;;;;28.88;41.25;99962.53;5100759;28;20486;-64
2022/06/25 05:53:11;;;;;;;3.37;2.20;;;;;;;27.72;43.17;99956.81;5100200;28;20469;-63
2022/06/25 05:55:39;;;;;;;3.00;2.20;;;;;;;28.76;41.34;99955.63;5100709;28;20462;-65
2022/06/25 05:58:06;;;;;;;3.67;2.13;;;;;;;29.12;39.59;99956.59;5101411;28;20469;-65
2022/06/25 06:00:32;;;;;;;6.67;3.03;;;;;;;28.71;40.70;99962.78;5101039;28;20459;-64
2022/06/25 06:02:59;;;;;;;3.60;2.20;;;;;;;28.68;41.11;99968.00;5100565;28;20803;-65
2022/06/25 06:05:26;;;;;;;3.47;2.00;;;;;;;29.13;40.24;99976.66;5100820;28;20481;-65
2022/06/25 06:07:52;;;;;;;3.83;2.13;;;;;;;29.14;39.91;99976.41;5101438;28;20508;-64
2022/06/25 06:10:19;;;;;;;3.40;2.23;;;;;;;28.74;40.48;99972.41;5099821;28;20457;-64
2022/06/25 06:12:47;;;;;;;2.57;2.10;;;;;;;29.23;40.13;99968.47;5100856;28;20470;-64
2022/06/25 06:15:14;;;;;;;3.47;2.33;;;;;;;29.51;38.97;99963.56;5100470;28;20477;-64
2022/06/25 06:17:40;;;;;;;3.20;2.50;;;;;;;28.84;40.17;99961.44;5100595;28;20447;-64
2022/06/25 06:20:08;;;;;;;3.10;1.97;;;;;;;29.47;39.43;99966.03;5100043;28;20483;-65
2022/06/25 06:22:35;;;;;;;2.70;2.10;;;;;;;28.52;40.92;99959.63;5100686;28;20451;-64
2022/06/25 06:25:01;;;;;;;3.50;2.10;;;;;;;29.73;38.50;99969.66;5099178;28;20471;-64
2022/06/25 06:27:28;;;;;;;3.10;2.03;;;;;;;29.52;38.93;99979.81;5100279;28;20477;-64
2022/06/25 06:29:56;;;;;;;4.90;1.90;;;;;;;28.68;40.19;99974.31;5100399;28;20489;-64
2022/06/25 06:32:22;;;;;;;4.00;2.10;;;;;;;28.48;40.92;99972.22;5099761;28;20478;-64
2022/06/25 06:34:49;;;;;;;3.17;2.10;;;;;;;28.79;40.36;99985.38;5098802;28;20690;-64
2022/06/25 06:37:16;;;;;;;3.50;2.00;;;;;;;27.35;42.63;99971.31;5099829;28;20467;-64
2022/06/25 06:39:42;;;;;;;3.30;2.10;;;;;;;27.17;43.38;99977.13;5100192;28;20744;-64
2022/06/25 06:42:09;;;;;;;4.40;2.47;;;;;;;27.81;42.56;99970.91;5098373;28;20477;-64
2022/06/25 06:44:36;;;;;;;7.03;2.33;;;;;;;27.73;41.87;99985.13;5096109;28;20462;-64
2022/06/25 06:47:04;;;;;;;3.67;2.33;;;;;;;28.37;41.13;99987.03;5098562;28;20474;-63
2022/06/25 06:49:31;;;;;;;3.50;1.80;;;;;;;29.09;39.46;99984.66;5100179;28;20447;-63
2022/06/25 06:51:58;;;;;;;4.60;2.20;;;;;;;29.90;37.66;99990.63;5099378;28;20479;-64
2022/06/25 06:54:24;;;;;;;3.47;2.07;;;;;;;29.31;38.74;99991.91;5099301;28;20485;-64
2022/06/25 06:56:53;;;;;;;3.17;1.83;;;;;;;30.02;38.69;99994.75;5099707;28;20474;-64
2022/06/25 06:59:19;;;;;;;3.80;2.10;;;;;;;30.43;36.06;99980.09;5099813;28;20510;-64
2022/06/25 07:01:46;;;;;;;2.90;1.77;;;;;;;30.58;36.20;99987.53;5099182;28;20493;-64
2022/06/25 07:04:14;;;;;;;4.73;1.87;;;;;;;30.08;36.89;99990.06;5099294;28;20447;-64
2022/06/25 07:06:40;;;;;;;3.53;1.57;;;;;;;29.84;37.10;99995.31;5099578;28;20558;-64
2022/06/25 07:09:07;;;;;;;7.30;1.80;;;;;;;30.26;36.03;99996.09;5099001;28;20487;-64
2022/06/25 07:11:34;;;;;;;2.10;1.57;;;;;;;30.62;35.37;99996.06;5098921;28;20532;-64
2022/06/25 07:14:01;;;;;;;3.33;1.60;;;;;;;31.38;34.10;99997.69;5099787;28;20447;-64
2022/06/25 07:16:28;;;;;;;2.00;1.80;;;;;;;30.62;35.81;100005.16;5098502;28;20851;-64
2022/06/25 07:18:56;;;;;;;2.57;1.50;;;;;;;31.12;34.76;100002.53;5099598;28;20455;-65
2022/06/25 07:21:24;;;;;;;2.50;1.73;;;;;;;32.27;33.01;99997.63;5099273;28;20553;-64
2022/06/25 07:23:51;;;;;;;1.60;1.30;;;;;;;32.86;31.56;100000.28;5098897;28;20451;-64
2022/06/25 07:26:18;;;;;;;2.40;1.77;;;;;;;31.09;34.45;99995.66;5098837;28;20497;-64
2022/06/25 07:28:44;;;;;;;4.80;1.97;;;;;;;31.71;33.04;99995.28;5096630;28;20466;-64
2022/06/25 07:31:11;;;;;;;3.10;1.70;;;;;;;31.89;32.57;99989.06;5094239;28;20474;-63
2022/06/25 07:33:38;;;;;;;2.47;1.50;;;;;;;30.82;34.29;99993.25;5098656;28;20471;-64
2022/06/25 07:36:07;;;;;;;2.17;1.60;;;;;;;29.61;35.66;99997.47;5098818;28;20506;-64
2022/06/25 07:38:35;;;;;;;2.47;1.90;;;;;;;31.17;33.48;99989.50;5099094;28;20453;-63
2022/06/25 07:41:01;;;;;;;4.80;1.60;;;;;;;30.85;33.91;99989.94;5099002;28;20467;-63
2022/06/25 07:43:28;;;;;;;2.37;1.20;;;;;;;33.00;31.20;99992.94;5099229;28;20443;-63
2022/06/25 07:45:55;;;;;;;4.10;1.43;;;;;;;31.96;31.54;99985.97;5087304;28;20826;-64
2022/06/25 07:48:22;;;;;;;6.47;1.50;;;;;;;31.66;32.98;99990.63;5083401;28;20502;-64
2022/06/25 07:53:33;;;;;;;4.10;1.63;;;;;;;31.27;33.89;99991.41;5082652;28;20519;-63
2022/06/25 07:56:01;;;;;;;3.13;1.70;;;;;;;32.49;31.54;99976.09;5083291;28;20538;-63
2022/06/25 07:58:29;;;;;;;3.43;1.57;;;;;;;32.93;30.25;99984.16;5088257;28;20538;-64
2022/06/25 08:00:56;;;;;;;2.30;1.63;;;;;;;31.53;32.49;99981.03;5095604;27;20515;-63
2022/06/25 08:03:22;;;;;;;3.27;1.20;;;;;;;31.21;33.28;99980.66;5080267;28;20455;-63
2022/06/25 08:05:49;;;;;;;1.80;1.53;;;;;;;31.30;32.77;99987.22;5081977;28;20996;-63
2022/06/25 08:08:16;;;;;;;2.57;1.17;;;;;;;31.65;32.15;99980.69;5082365;28;20428;-64
2022/06/25 08:10:43;;;;;;;1.53;1.13;;;;;;;32.33;31.61;99979.00;5081214;28;20472;-63
2022/06/25 08:13:11;;;;;;;3.60;1.93;;;;;;;32.73;30.14;99988.00;5082818;28;20503;-64
2022/06/25 08:15:37;;;;;;;4.13;1.20;;;;;;;31.17;33.43;99981.22;5081977;28;21071;-64
2022/06/25 08:18:04;;;;;;;4.93;1.50;;;;;;;32.66;30.28;99984.78;5082713;28;20431;-65
2022/06/25 08:20:31;;;;;;;4.23;1.40;;;;;;;31.82;32.56;99993.25;5081169;28;20467;-64
2022/06/25 08:22:58;;;;;;;2.83;1.23;;;;;;;32.08;31.41;99985.59;5082033;28;20447;-64
2022/06/25 08:25:24;;;;;;;2.40;1.37;;;;;;;31.04;32.91;99989.31;5080660;28;20492;-64
2022/06/25 08:27:53;;;;;;;3.60;1.37;;;;;;;32.94;30.30;99990.53;5081514;28;20444;-64
2022/06/25 08:30:22;;;;;;;2.23;1.30;;;;;;;31.71;31.14;99984.22;5083163;28;20459;-63
2022/06/25 08:32:49;;;;;;;4.53;1.43;;;;;;;31.53;31.62;99983.00;5078637;28;20468;-64
2022/06/25 08:35:16;;;;;;;2.73;1.20;;;;;;;33.29;29.22;99989.22;5081971;28;20922;-64
2022/06/25 08:37:44;;;;;;;3.50;1.40;;;;;;;32.01;30.39;99996.16;5102493;28;20450;-64
2022/06/25 08:40:11;;;;;;;3.77;1.70;;;;;;;32.33;29.81;99990.06;5101766;28;20710;-64
2022/06/25 08:42:38;;;;;;;2.97;1.40;;;;;;;32.63;29.40;99991.69;5102190;28;20503;-64
2022/06/25 08:45:06;;;;;;;2.60;1.40;;;;;;;32.88;28.19;99980.63;5099316;28;20454;-64
2022/06/25 08:47:34;;;;;;;4.83;1.30;;;;;;;33.01;28.27;99993.75;5080589;28;20451;-64
2022/06/25 08:50:01;;;;;;;3.27;1.60;;;;;;;31.65;30.64;99990.94;5080781;28;20456;-64
2022/06/25 08:52:29;;;;;;;6.50;1.90;;;;;;;33.08;30.32;99991.44;5081504;28;20893;-64
2022/06/25 08:54:56;;;;;;;3.50;1.57;;;;;;;33.35;29.51;99988.06;5081201;28;20546;-61
2022/06/25 08:57:23;;;;;;;2.50;1.20;;;;;;;33.14;28.73;99989.44;5099013;28;20516;-62
2022/06/25 08:59:50;;;;;;;4.03;1.20;;;;;;;32.88;28.06;99977.84;5101627;28;20450;-62
2022/06/25 09:02:16;;;;;;;2.50;1.20;;;;;;;32.90;29.20;99976.44;5100172;28;20536;-62
2022/06/25 09:04:44;;;;;;;3.03;1.33;;;;;;;32.27;29.51;99988.47;5100944;28;20450;-62
2022/06/25 09:07:12;;;;;;;6.67;1.37;;;;;;;32.43;29.27;99984.44;5101158;28;20474;-62
2022/06/25 09:09:39;;;;;;;2.57;1.10;;;;;;;33.58;27.42;99982.72;5100340;28;20454;-63
2022/06/25 09:12:08;;;;;;;2.00;1.20;;;;;;;32.87;29.32;99982.56;5100432;28;20471;-63
2022/06/25 09:14:37;;;;;;;1.80;1.20;;;;;;;32.23;29.69;99982.69;5101940;28;20538;-63
2022/06/25 09:17:05;;;;;;;2.40;1.10;;;;;;;33.92;27.98;99988.03;5101111;28;20533;-63
2022/06/25 09:19:36;;;;;;;2.33;1.03;;;;;;;33.59;27.44;99978.81;5100491;28;20628;-63
2022/06/25 09:22:06;;;;;;;1.53;1.17;;;;;;;32.76;29.39;99979.13;5100791;28;20486;-63
2022/06/25 09:24:44;;;;;;;4.77;1.47;;;;;;;34.20;27.06;99988.13;5100510;28;20451;-64
2022/06/25 09:27:11;;;;;;;1.87;0.90;;;;;;;33.44;26.80;99979.06;5100586;28;20474;-64
2022/06/25 09:29:40;;;;;;;1.70;1.07;;;;;;;32.88;27.37;99975.09;5100836;28;20789;-63
2022/06/25 09:32:08;;;;;;;6.23;1.60;;;;;;;31.90;29.99;99978.81;5098142;28;20475;-63
2022/06/25 09:34:35;;;;;;;3.23;1.10;;;;;;;31.62;29.74;99972.97;5101085;28;20684;-63
2022/06/25 09:37:21;;;;;;;2.27;1.30;;;;;;;32.11;28.70;99971.19;5100786;28;20471;-63
2022/06/25 09:39:49;;;;;;;2.27;1.30;;;;;;;32.46;29.56;99972.78;5099686;28;20959;-63
2022/06/25 09:42:29;;;;;;;3.50;1.20;;;;;;;33.67;27.47;99975.38;5099658;28;20532;-63
2022/06/25 09:45:05;;;;;;;3.10;1.10;;;;;;;34.28;25.99;99981.84;5100558;28;20438;-63
2022/06/25 09:47:36;;;;;;;2.90;1.50;;;;;;;33.32;27.26;99979.50;5099605;28;20518;-63
2022/06/25 09:50:10;;;;;;;3.13;1.07;;;;;;;33.74;27.72;99973.06;5100889;28;20443;-64
2022/06/25 09:52:39;;;;;;;2.13;1.33;;;;;;;31.63;29.88;99982.06;5099039;28;20511;-63
2022/06/25 09:55:07;;;;;;;2.60;1.10;;;;;;;29.06;33.94;99990.69;5094745;28;20525;-63
2022/06/25 09:57:34;;;;;;;4.30;1.30;;;;;;;29.75;33.40;99983.97;5099284;28;20475;-63
2022/06/25 10:00:02;;;;;;;2.63;1.33;;;;;;;30.43;32.03;99969.06;5100327;28;20450;-64
2022/06/25 10:02:29;;;;;;;2.50;1.30;;;;;;;30.41;32.08;99968.53;5098822;28;20474;-64
2022/06/25 10:05:01;;;;;;;6.40;1.60;;;;;;;29.18;33.97;99983.03;5100304;28;20463;-64
2022/06/25 10:10:12;;;;;;;2.30;1.53;;;;;;;29.88;33.39;99979.03;5068864;28;20444;-63
2022/06/25 10:12:39;;;;;;;1.73;1.20;;;;;;;31.82;29.94;99971.16;5079774;28;20543;-64
2022/06/25 10:15:07;;;;;;;2.23;1.27;;;;;;;32.56;28.38;99974.59;5076938;28;20949;-64
2022/06/25 10:17:34;;;;;;;1.50;1.33;;;;;;;33.59;26.92;99970.50;5078779;28;20466;-64
2022/06/25 10:20:02;;;;;;;1.90;1.50;;;;;;;32.69;28.54;99973.13;5079750;28;20483;-64
2022/06/25 10:22:29;;;;;;;4.13;1.53;;;;;;;33.52;28.18;99967.28;5098126;28;20478;-64
2022/06/25 10:24:57;;;;;;;2.83;1.47;;;;;;;33.10;28.60;99969.81;5098427;28;20451;-64
2022/06/25 10:27:25;;;;;;;2.27;1.50;;;;;;;33.53;27.25;99971.72;5090661;27;20486;-64
2022/06/25 10:29:52;;;;;;;3.00;1.30;;;;;;;33.70;27.98;99974.78;5090294;28;20443;-64
2022/06/25 10:32:20;;;;;;;3.70;1.30;;;;;;;32.54;28.82;99967.72;5087307;28;20536;-64
2022/06/25 10:34:55;;;;;;;2.90;1.40;;;;;;;34.54;26.51;99961.13;5098818;28;20466;-64
2022/06/25 10:37:22;;;;;;;2.60;1.47;;;;;;;33.34;27.10;99967.00;5099906;28;20470;-64
2022/06/25 10:39:50;;;;;;;2.30;1.37;;;;;;;33.12;26.59;99963.97;5098609;28;20992;-63
2022/06/25 10:45:46;;;;;;;3.40;1.53;;;;;;;32.69;27.00;99966.72;5077078;28;20470;-63
2022/06/25 10:48:13;;;;;;;3.40;1.20;;;;;;;34.44;25.39;99953.81;5096387;28;20562;-64
2022/06/25 10:50:45;;;;;;;1.67;1.27;;;;;;;33.57;25.95;99959.69;5098957;28;20501;-64
2022/06/25 10:53:20;;;;;;;2.87;1.17;;;;;;;34.05;25.50;99958.66;5099583;28;20475;-63
2022/06/25 10:56:17;;;;;;;2.90;1.00;;;;;;;31.57;27.65;99955.63;5088198;28;20478;-63
2022/06/25 10:58:49;;;;;;;3.27;1.00;;;;;;;30.30;29.75;99948.41;5100047;28;20476;-63
2022/06/25 11:01:31;;;;;;;2.03;1.10;;;;;;;30.49;29.92;99956.13;5098022;28;20505;-63
2022/06/25 11:04:15;;;;;;;2.67;1.33;;;;;;;29.85;32.81;99945.44;5099056;28;20478;-63
2022/06/25 11:06:42;;;;;;;2.70;1.40;;;;;;;29.13;33.77;99960.16;5098960;28;20466;-63
2022/06/25 11:09:12;;;;;;;2.33;1.33;;;;;;;29.34;33.75;99958.31;5098760;28;20463;-63
2022/06/25 11:11:39;;;;;;;2.13;1.60;;;;;;;30.23;31.36;99947.88;5098754;28;20475;-63
2022/06/25 11:14:16;;;;;;;2.07;1.40;;;;;;;30.84;30.41;99951.56;5099080;28;20482;-63
2022/06/25 11:16:43;;;;;;;4.20;1.17;;;;;;;31.79;29.46;99953.22;5097993;28;21032;-63
2022/06/25 11:19:11;;;;;;;3.33;1.30;;;;;;;32.45;28.33;99950.94;5098496;28;20462;-63
2022/06/25 11:21:39;;;;;;;1.87;1.10;;;;;;;31.61;29.79;99953.91;5098611;28;20520;-63
2022/06/25 11:24:12;;;;;;;3.40;1.60;;;;;;;31.06;30.58;99954.78;5097188;28;20488;-63
2022/06/25 11:29:26;;;;;;;3.30;1.40;;;;;;;32.16;28.50;99951.78;5086355;28;20526;-64
2022/06/25 11:31:54;;;;;;;2.77;1.20;;;;;;;32.44;29.14;99963.94;5096005;27;20470;-63
2022/06/25 11:34:24;;;;;;;1.83;1.10;;;;;;;32.96;26.67;99963.34;5098950;28;20510;-62
2022/06/25 11:37:03;;;;;;;3.37;1.00;;;;;;;32.81;26.51;99958.81;5098436;28;20485;-62
2022/06/25 11:39:30;;;;;;;3.13;1.03;;;;;;;31.48;27.77;99961.72;5098520;28;20446;-62
2022/06/25 11:41:58;;;;;;;2.30;1.17;;;;;;;30.84;30.31;99957.09;5098666;27;20498;-62
2022/06/25 11:44:26;;;;;;;1.90;1.07;;;;;;;30.50;31.08;99946.72;5092490;28;20543;-62
2022/06/25 11:46:53;;;;;;;4.07;1.40;;;;;;;29.58;32.97;99964.97;5076960;28;20486;-62
2022/06/25 11:49:22;;;;;;;2.70;1.10;;;;;;;29.17;31.97;99964.06;5097891;28;20457;-62
2022/06/25 11:51:50;;;;;;;3.73;1.30;;;;;;;29.21;33.17;99965.97;5098533;28;20479;-62
2022/06/25 11:54:21;;;;;;;3.00;1.33;;;;;;;29.11;33.85;99963.16;5097595;28;20482;-62